sensor_id;sensor_type;location;lat;lon;timestamp;pressure;altitude;pressure_sealevel;temperature;humidity
77120;BME280;66073;47.730;9.352;2023-03-01T00:00:37;97263.19;;;0.27;68.75
77120;BME280;66073;47.730;9.352;2023-03-01T00:03:03;97266.34;;;0.09;69.55
77120;BME280;66073;47.730;9.352;2023-03-01T00:05:28;97265.78;;;0.20;69.37
77120;BME280;66073;47.730;9.352;2023-03-01T00:07:55;97258.00;;;-0.01;69.74
77120;BME280;66073;47.730;9.352;2023-03-01T00:10:22;97268.00;;;0.17;69.55
77120;BME280;66073;47.730;9.352;2023-03-01T00:12:48;97261.50;;;0.13;69.26
77120;BME280;66073;47.730;9.352;2023-03-01T00:15:13;97256.72;;;0.23;69.20
77120;BME280;66073;47.730;9.352;2023-03-01T00:17:39;97253.09;;;0.24;69.21
77120;BME280;66073;47.730;9.352;2023-03-01T00:20:05;97251.09;;;0.32;68.81
77120;BME280;66073;47.730;9.352;2023-03-01T00:22:36;97243.03;;;0.34;68.52
77120;BME280;66073;47.730;9.352;2023-03-01T00:25:01;97247.31;;;0.48;67.94
77120;BME280;66073;47.730;9.352;2023-03-01T00:27:27;97243.31;;;0.52;68.56
77120;BME280;66073;47.730;9.352;2023-03-01T00:29:52;97241.16;;;0.21;69.36
77120;BME280;66073;47.730;9.352;2023-03-01T00:32:18;97238.31;;;0.16;69.78
77120;BME280;66073;47.730;9.352;2023-03-01T00:34:43;97243.31;;;0.52;68.96
77120;BME280;66073;47.730;9.352;2023-03-01T00:37:22;97236.00;;;0.41;69.17
77120;BME280;66073;47.730;9.352;2023-03-01T00:39:49;97233.75;;;0.38;68.71
77120;BME280;66073;47.730;9.352;2023-03-01T00:42:16;97239.00;;;0.38;69.09
77120;BME280;66073;47.730;9.352;2023-03-01T00:44:41;97231.59;;;0.55;68.67
77120;BME280;66073;47.730;9.352;2023-03-01T00:47:07;97233.09;;;0.90;67.17
77120;BME280;66073;47.730;9.352;2023-03-01T00:49:32;97223.75;;;0.68;67.47
77120;BME280;66073;47.730;9.352;2023-03-01T00:51:58;97234.78;;;0.43;68.54
77120;BME280;66073;47.730;9.352;2023-03-01T00:54:24;97235.56;;;0.31;69.26
77120;BME280;66073;47.730;9.352;2023-03-01T00:56:49;97242.03;;;0.35;69.13
77120;BME280;66073;47.730;9.352;2023-03-01T00:59:15;97221.22;;;0.40;68.92
77120;BME280;66073;47.730;9.352;2023-03-01T01:01:41;97220.91;;;0.56;68.58
77120;BME280;66073;47.730;9.352;2023-03-01T01:04:10;97216.22;;;0.45;69.51
77120;BME280;66073;47.730;9.352;2023-03-01T01:06:39;97209.97;;;0.46;68.87
77120;BME280;66073;47.730;9.352;2023-03-01T01:09:09;97207.91;;;0.35;69.30
77120;BME280;66073;47.730;9.352;2023-03-01T01:11:51;97209.13;;;0.39;69.43
77120;BME280;66073;47.730;9.352;2023-03-01T01:14:18;97205.31;;;0.55;69.13
77120;BME280;66073;47.730;9.352;2023-03-01T01:16:44;97202.50;;;0.49;69.20
77120;BME280;66073;47.730;9.352;2023-03-01T01:19:10;97195.03;;;0.60;68.93
77120;BME280;66073;47.730;9.352;2023-03-01T01:21:36;97184.47;;;0.33;69.26
77120;BME280;66073;47.730;9.352;2023-03-01T01:24:03;97185.13;;;0.55;69.29
77120;BME280;66073;47.730;9.352;2023-03-01T01:26:32;97189.31;;;0.43;69.47
77120;BME280;66073;47.730;9.352;2023-03-01T01:28:58;97177.06;;;0.63;69.10
77120;BME280;66073;47.730;9.352;2023-03-01T01:31:27;97175.59;;;0.41;69.61
77120;BME280;66073;47.730;9.352;2023-03-01T01:33:54;97184.47;;;0.40;69.73
77120;BME280;66073;47.730;9.352;2023-03-01T01:36:22;97176.06;;;0.64;69.27
77120;BME280;66073;47.730;9.352;2023-03-01T01:38:48;97172.81;;;0.49;69.71
77120;BME280;66073;47.730;9.352;2023-03-01T01:41:14;97166.09;;;0.40;69.74
77120;BME280;66073;47.730;9.352;2023-03-01T01:46:37;97170.81;;;0.64;69.13
77120;BME280;66073;47.730;9.352;2023-03-01T01:49:11;97163.94;;;0.76;68.55
77120;BME280;66073;47.730;9.352;2023-03-01T01:51:44;97160.25;;;0.51;69.21
77120;BME280;66073;47.730;9.352;2023-03-01T01:57:42;97159.03;;;0.47;70.02
77120;BME280;66073;47.730;9.352;2023-03-01T02:00:15;97153.38;;;0.50;69.66
77120;BME280;66073;47.730;9.352;2023-03-01T02:02:43;97151.81;;;0.69;69.33
77120;BME280;66073;47.730;9.352;2023-03-01T02:05:51;97145.34;;;0.58;69.73
77120;BME280;66073;47.730;9.352;2023-03-01T02:08:21;97148.19;;;0.63;69.36
77120;BME280;66073;47.730;9.352;2023-03-01T02:10:50;97143.50;;;0.45;70.08
77120;BME280;66073;47.730;9.352;2023-03-01T02:13:17;97137.09;;;0.74;69.28
77120;BME280;66073;47.730;9.352;2023-03-01T02:15:43;97143.69;;;0.57;70.12
77120;BME280;66073;47.730;9.352;2023-03-01T02:18:16;97136.66;;;0.64;69.81
77120;BME280;66073;47.730;9.352;2023-03-01T02:21:25;97142.13;;;0.76;69.63
77120;BME280;66073;47.730;9.352;2023-03-01T02:23:54;97128.16;;;0.62;70.03
77120;BME280;66073;47.730;9.352;2023-03-01T02:26:37;97137.25;;;0.53;69.96
77120;BME280;66073;47.730;9.352;2023-03-01T02:29:05;97135.81;;;0.50;70.29
77120;BME280;66073;47.730;9.352;2023-03-01T02:31:31;97142.88;;;0.37;70.27
77120;BME280;66073;47.730;9.352;2023-03-01T02:34:20;97138.44;;;0.37;70.75
77120;BME280;66073;47.730;9.352;2023-03-01T02:36:58;97135.63;;;0.45;70.60
77120;BME280;66073;47.730;9.352;2023-03-01T02:39:38;97135.63;;;0.52;70.74
77120;BME280;66073;47.730;9.352;2023-03-01T02:42:12;97134.00;;;0.51;70.79
77120;BME280;66073;47.730;9.352;2023-03-01T02:44:38;97122.44;;;0.32;70.97
77120;BME280;66073;47.730;9.352;2023-03-01T02:47:05;97126.75;;;0.53;70.33
77120;BME280;66073;47.730;9.352;2023-03-01T02:49:33;97125.94;;;0.59;70.08
77120;BME280;66073;47.730;9.352;2023-03-01T02:54:58;97125.53;;;0.75;69.87
77120;BME280;66073;47.730;9.352;2023-03-01T02:57:27;97126.13;;;0.44;70.51
77120;BME280;66073;47.730;9.352;2023-03-01T02:59:55;97117.06;;;0.67;70.38
77120;BME280;66073;47.730;9.352;2023-03-01T03:02:25;97113.81;;;0.45;70.92
77120;BME280;66073;47.730;9.352;2023-03-01T03:05:15;97113.81;;;0.65;70.20
77120;BME280;66073;47.730;9.352;2023-03-01T03:07:44;97104.94;;;0.79;70.18
77120;BME280;66073;47.730;9.352;2023-03-01T03:10:22;97108.16;;;0.94;69.39
77120;BME280;66073;47.730;9.352;2023-03-01T03:12:53;97112.63;;;0.80;69.91
77120;BME280;66073;47.730;9.352;2023-03-01T03:15:21;97109.59;;;0.83;69.60
77120;BME280;66073;47.730;9.352;2023-03-01T03:17:48;97112.63;;;1.13;68.59
77120;BME280;66073;47.730;9.352;2023-03-01T03:20:17;97103.13;;;0.92;69.34
77120;BME280;66073;47.730;9.352;2023-03-01T03:22:48;97100.09;;;0.82;69.45
77120;BME280;66073;47.730;9.352;2023-03-01T03:25:16;97104.34;;;0.83;69.57
77120;BME280;66073;47.730;9.352;2023-03-01T03:27:44;97105.97;;;0.71;69.93
77120;BME280;66073;47.730;9.352;2023-03-01T03:30:13;97097.63;;;0.35;71.24
77120;BME280;66073;47.730;9.352;2023-03-01T03:32:41;97104.13;;;0.39;71.24
77120;BME280;66073;47.730;9.352;2023-03-01T03:35:09;97102.25;;;0.33;71.12
77120;BME280;66073;47.730;9.352;2023-03-01T03:37:37;97113.19;;;0.36;71.28
77120;BME280;66073;47.730;9.352;2023-03-01T03:40:21;97100.47;;;0.40;71.16
77120;BME280;66073;47.730;9.352;2023-03-01T03:42:46;97098.03;;;0.32;71.09
77120;BME280;66073;47.730;9.352;2023-03-01T03:45:13;97100.84;;;0.37;71.48
77120;BME280;66073;47.730;9.352;2023-03-01T03:47:40;97101.03;;;0.29;71.42
77120;BME280;66073;47.730;9.352;2023-03-01T03:50:05;97103.31;;;0.45;71.13
77120;BME280;66073;47.730;9.352;2023-03-01T03:52:31;97101.31;;;0.67;70.41
77120;BME280;66073;47.730;9.352;2023-03-01T03:54:56;97104.53;;;0.49;70.67
77120;BME280;66073;47.730;9.352;2023-03-01T03:57:22;97099.28;;;0.56;70.61
77120;BME280;66073;47.730;9.352;2023-03-01T03:59:47;97097.81;;;0.27;71.18
77120;BME280;66073;47.730;9.352;2023-03-01T04:02:13;97097.66;;;0.48;71.02
77120;BME280;66073;47.730;9.352;2023-03-01T04:04:48;97097.25;;;0.51;71.05
77120;BME280;66073;47.730;9.352;2023-03-01T04:07:17;97087.16;;;0.61;70.74
77120;BME280;66073;47.730;9.352;2023-03-01T04:09:43;97091.22;;;0.70;70.54
77120;BME280;66073;47.730;9.352;2023-03-01T04:12:09;97083.94;;;0.59;70.85
77120;BME280;66073;47.730;9.352;2023-03-01T04:14:35;97085.94;;;0.50;70.56
77120;BME280;66073;47.730;9.352;2023-03-01T04:17:01;97087.16;;;0.48;70.84
77120;BME280;66073;47.730;9.352;2023-03-01T04:19:29;97089.78;;;0.48;70.98
77120;BME280;66073;47.730;9.352;2023-03-01T04:22:02;97088.78;;;0.56;70.96
77120;BME280;66073;47.730;9.352;2023-03-01T04:24:37;97077.63;;;0.54;70.82
77120;BME280;66073;47.730;9.352;2023-03-01T04:27:03;97077.44;;;0.62;70.59
77120;BME280;66073;47.730;9.352;2023-03-01T04:29:29;97087.75;;;0.43;71.10
77120;BME280;66073;47.730;9.352;2023-03-01T04:31:54;97076.25;;;0.64;70.99
77120;BME280;66073;47.730;9.352;2023-03-01T04:34:20;97078.88;;;0.64;70.64
77120;BME280;66073;47.730;9.352;2023-03-01T04:36:45;97084.75;;;0.53;70.89
77120;BME280;66073;47.730;9.352;2023-03-01T04:39:11;97082.28;;;0.38;71.63
77120;BME280;66073;47.730;9.352;2023-03-01T04:41:40;97083.34;;;0.64;70.63
77120;BME280;66073;47.730;9.352;2023-03-01T04:44:06;97074.44;;;0.71;70.56
77120;BME280;66073;47.730;9.352;2023-03-01T04:46:32;97084.53;;;0.74;70.53
77120;BME280;66073;47.730;9.352;2023-03-01T04:48:57;97078.66;;;0.72;70.03
77120;BME280;66073;47.730;9.352;2023-03-01T04:51:23;97079.47;;;0.46;71.17
77120;BME280;66073;47.730;9.352;2023-03-01T04:53:49;97079.06;;;0.43;71.29
77120;BME280;66073;47.730;9.352;2023-03-01T04:56:15;97081.06;;;0.41;71.31
77120;BME280;66073;47.730;9.352;2023-03-01T04:58:43;97079.84;;;0.43;71.45
77120;BME280;66073;47.730;9.352;2023-03-01T05:01:17;97073.00;;;0.49;71.25
77120;BME280;66073;47.730;9.352;2023-03-01T05:03:48;97073.78;;;0.30;71.78
77120;BME280;66073;47.730;9.352;2023-03-01T05:06:14;97073.63;;;0.77;70.81
77120;BME280;66073;47.730;9.352;2023-03-01T05:08:41;97064.94;;;0.64;70.89
77120;BME280;66073;47.730;9.352;2023-03-01T05:11:07;97071.81;;;0.84;70.52
77120;BME280;66073;47.730;9.352;2023-03-01T05:13:36;97060.69;;;0.69;70.81
77120;BME280;66073;47.730;9.352;2023-03-01T05:16:02;97062.91;;;0.72;70.57
77120;BME280;66073;47.730;9.352;2023-03-01T05:18:31;97059.47;;;0.65;70.85
77120;BME280;66073;47.730;9.352;2023-03-01T05:21:12;97060.88;;;0.55;71.33
77120;BME280;66073;47.730;9.352;2023-03-01T05:23:38;97062.09;;;0.72;70.63
77120;BME280;66073;47.730;9.352;2023-03-01T05:26:06;97073.41;;;0.46;71.53
77120;BME280;66073;47.730;9.352;2023-03-01T05:28:32;97061.50;;;0.63;71.06
77120;BME280;66073;47.730;9.352;2023-03-01T05:30:59;97060.88;;;0.87;70.53
77120;BME280;66073;47.730;9.352;2023-03-01T05:33:25;97057.88;;;0.64;71.12
77120;BME280;66073;47.730;9.352;2023-03-01T05:35:51;97057.25;;;0.75;71.17
77120;BME280;66073;47.730;9.352;2023-03-01T05:38:18;97048.34;;;0.89;71.08
77120;BME280;66073;47.730;9.352;2023-03-01T05:40:46;97050.81;;;0.71;70.92
77120;BME280;66073;47.730;9.352;2023-03-01T05:43:14;97040.28;;;0.71;71.17
77120;BME280;66073;47.730;9.352;2023-03-01T05:45:41;97038.84;;;0.88;70.94
77120;BME280;66073;47.730;9.352;2023-03-01T05:48:08;97035.84;;;0.78;70.81
77120;BME280;66073;47.730;9.352;2023-03-01T05:50:36;97035.22;;;0.76;71.04
77120;BME280;66073;47.730;9.352;2023-03-01T05:53:10;97024.09;;;0.81;70.76
77120;BME280;66073;47.730;9.352;2023-03-01T05:55:36;97028.97;;;0.77;70.72
77120;BME280;66073;47.730;9.352;2023-03-01T05:58:05;97018.63;;;0.82;70.77
77120;BME280;66073;47.730;9.352;2023-03-01T06:00:31;97025.50;;;0.83;70.69
77120;BME280;66073;47.730;9.352;2023-03-01T06:02:58;97029.16;;;0.69;71.07
77120;BME280;66073;47.730;9.352;2023-03-01T06:05:25;97028.56;;;0.80;70.66
77120;BME280;66073;47.730;9.352;2023-03-01T06:07:51;97025.72;;;0.75;71.87
77120;BME280;66073;47.730;9.352;2023-03-01T06:10:18;97023.88;;;0.82;70.90
77120;BME280;66073;47.730;9.352;2023-03-01T06:12:45;97031.38;;;0.85;70.55
77120;BME280;66073;47.730;9.352;2023-03-01T06:15:14;97036.22;;;0.75;71.06
77120;BME280;66073;47.730;9.352;2023-03-01T06:17:43;97036.84;;;0.77;70.91
77120;BME280;66073;47.730;9.352;2023-03-01T06:20:10;97039.66;;;0.82;71.01
77120;BME280;66073;47.730;9.352;2023-03-01T06:22:36;97039.28;;;0.85;70.69
77120;BME280;66073;47.730;9.352;2023-03-01T06:25:02;97045.13;;;0.81;70.84
77120;BME280;66073;47.730;9.352;2023-03-01T06:27:27;97039.91;;;0.68;71.54
77120;BME280;66073;47.730;9.352;2023-03-01T06:29:53;97037.44;;;0.46;71.56
77120;BME280;66073;47.730;9.352;2023-03-01T06:32:19;97039.50;;;0.64;71.85
77120;BME280;66073;47.730;9.352;2023-03-01T06:34:44;97034.81;;;0.79;71.14
77120;BME280;66073;47.730;9.352;2023-03-01T06:37:10;97036.63;;;0.79;71.12
77120;BME280;66073;47.730;9.352;2023-03-01T06:39:36;97036.25;;;0.49;72.16
77120;BME280;66073;47.730;9.352;2023-03-01T06:42:01;97039.50;;;0.64;71.90
77120;BME280;66073;47.730;9.352;2023-03-01T06:44:27;97038.88;;;0.69;71.38
77120;BME280;66073;47.730;9.352;2023-03-01T06:46:53;97034.22;;;0.77;71.59
77120;BME280;66073;47.730;9.352;2023-03-01T06:49:18;97035.03;;;0.84;71.50
77120;BME280;66073;47.730;9.352;2023-03-01T06:51:45;97036.66;;;0.46;71.94
77120;BME280;66073;47.730;9.352;2023-03-01T06:54:11;97036.66;;;0.66;71.60
77120;BME280;66073;47.730;9.352;2023-03-01T06:56:36;97035.84;;;0.78;71.71
77120;BME280;66073;47.730;9.352;2023-03-01T06:59:02;97046.31;;;0.91;71.02
77120;BME280;66073;47.730;9.352;2023-03-01T07:01:29;97037.44;;;0.86;71.03
77120;BME280;66073;47.730;9.352;2023-03-01T07:03:55;97035.84;;;0.65;71.31
77120;BME280;66073;47.730;9.352;2023-03-01T07:06:21;97043.91;;;0.57;71.84
77120;BME280;66073;47.730;9.352;2023-03-01T07:08:47;97039.88;;;0.61;71.59
77120;BME280;66073;47.730;9.352;2023-03-01T07:11:13;97044.75;;;0.64;71.95
77120;BME280;66073;47.730;9.352;2023-03-01T07:13:39;97035.84;;;0.78;71.78
77120;BME280;66073;47.730;9.352;2023-03-01T07:16:05;97036.22;;;0.75;71.53
77120;BME280;66073;47.730;9.352;2023-03-01T07:18:30;97029.38;;;0.74;71.54
77120;BME280;66073;47.730;9.352;2023-03-01T07:20:56;97032.81;;;0.75;71.21
77120;BME280;66073;47.730;9.352;2023-03-01T07:23:22;97037.47;;;0.53;71.86
77120;BME280;66073;47.730;9.352;2023-03-01T07:25:54;97034.22;;;0.58;72.00
77120;BME280;66073;47.730;9.352;2023-03-01T07:28:21;97041.91;;;0.53;72.16
77120;BME280;66073;47.730;9.352;2023-03-01T07:30:47;97036.25;;;0.42;72.45
77120;BME280;66073;47.730;9.352;2023-03-01T07:33:13;97039.69;;;0.56;72.25
77120;BME280;66073;47.730;9.352;2023-03-01T07:35:38;97034.22;;;0.38;72.01
77120;BME280;66073;47.730;9.352;2023-03-01T07:38:04;97030.59;;;0.39;72.05
77120;BME280;66073;47.730;9.352;2023-03-01T07:40:29;97035.84;;;0.59;72.01
77120;BME280;66073;47.730;9.352;2023-03-01T07:42:56;97041.47;;;0.69;71.75
77120;BME280;66073;47.730;9.352;2023-03-01T07:45:23;97031.97;;;0.87;71.30
77120;BME280;66073;47.730;9.352;2023-03-01T07:47:52;97024.72;;;0.76;71.04
77120;BME280;66073;47.730;9.352;2023-03-01T07:50:18;97021.91;;;0.58;71.73
77120;BME280;66073;47.730;9.352;2023-03-01T07:52:49;97038.25;;;0.86;70.90
77120;BME280;66073;47.730;9.352;2023-03-01T07:55:16;97034.22;;;0.84;70.72
77120;BME280;66073;47.730;9.352;2023-03-01T07:57:42;97022.28;;;0.68;71.06
77120;BME280;66073;47.730;9.352;2023-03-01T08:00:10;97025.72;;;0.88;70.68
77120;BME280;66073;47.730;9.352;2023-03-01T08:02:36;97027.34;;;0.96;70.50
77120;BME280;66073;47.730;9.352;2023-03-01T08:05:02;97017.63;;;0.83;71.40
77120;BME280;66073;47.730;9.352;2023-03-01T08:07:27;97022.13;;;0.57;71.18
77120;BME280;66073;47.730;9.352;2023-03-01T08:09:53;97021.09;;;0.77;70.91
77120;BME280;66073;47.730;9.352;2023-03-01T08:12:18;97020.69;;;0.41;71.76
77120;BME280;66073;47.730;9.352;2023-03-01T08:14:44;97026.13;;;0.72;70.98
77120;BME280;66073;47.730;9.352;2023-03-01T08:17:10;97020.47;;;0.62;71.49
77120;BME280;66073;47.730;9.352;2023-03-01T08:19:35;97012.38;;;0.83;70.92
77120;BME280;66073;47.730;9.352;2023-03-01T08:22:01;97018.84;;;0.61;71.42
77120;BME280;66073;47.730;9.352;2023-03-01T08:24:28;97016.00;;;0.95;70.99
77120;BME280;66073;47.730;9.352;2023-03-01T08:26:54;97019.84;;;0.99;70.57
77120;BME280;66073;47.730;9.352;2023-03-01T08:29:20;97014.63;;;0.60;71.52
77120;BME280;66073;47.730;9.352;2023-03-01T08:31:46;97009.97;;;0.69;71.42
77120;BME280;66073;47.730;9.352;2023-03-01T08:34:16;97007.88;;;1.04;70.49
77120;BME280;66073;47.730;9.352;2023-03-01T08:36:44;96999.44;;;0.95;70.24
77120;BME280;66073;47.730;9.352;2023-03-01T08:39:13;97000.25;;;0.95;70.59
77120;BME280;66073;47.730;9.352;2023-03-01T08:41:39;97002.66;;;0.97;70.51
77120;BME280;66073;47.730;9.352;2023-03-01T08:44:06;97001.63;;;0.98;70.31
77120;BME280;66073;47.730;9.352;2023-03-01T08:46:36;97000.28;;;0.56;71.68
77120;BME280;66073;47.730;9.352;2023-03-01T08:49:11;97001.88;;;0.57;71.06
77120;BME280;66073;47.730;9.352;2023-03-01T08:51:36;97001.88;;;0.83;71.00
77120;BME280;66073;47.730;9.352;2023-03-01T08:54:07;96996.94;;;1.20;69.91
77120;BME280;66073;47.730;9.352;2023-03-01T08:56:35;97002.84;;;1.02;70.25
77120;BME280;66073;47.730;9.352;2023-03-01T08:59:00;97003.88;;;0.94;70.86
77120;BME280;66073;47.730;9.352;2023-03-01T09:01:26;97000.88;;;0.84;70.64
77120;BME280;66073;47.730;9.352;2023-03-01T09:03:51;96993.72;;;1.18;70.17
77120;BME280;66073;47.730;9.352;2023-03-01T09:06:18;97000.09;;;1.41;69.02
77120;BME280;66073;47.730;9.352;2023-03-01T09:08:46;96993.25;;;1.34;69.29
77120;BME280;66073;47.730;9.352;2023-03-01T09:11:18;96985.22;;;1.16;69.62
77120;BME280;66073;47.730;9.352;2023-03-01T09:13:44;96983.38;;;1.23;69.77
77120;BME280;66073;47.730;9.352;2023-03-01T09:16:12;96993.44;;;1.39;69.06
77120;BME280;66073;47.730;9.352;2023-03-01T09:18:38;96986.91;;;1.48;69.27
77120;BME280;66073;47.730;9.352;2023-03-01T09:21:10;96989.34;;;1.43;68.90
77120;BME280;66073;47.730;9.352;2023-03-01T09:23:41;96984.09;;;1.49;67.90
77120;BME280;66073;47.730;9.352;2023-03-01T09:26:16;96982.09;;;0.74;69.60
77120;BME280;66073;47.730;9.352;2023-03-01T09:28:45;96987.25;;;1.14;69.87
77120;BME280;66073;47.730;9.352;2023-03-01T09:31:11;96985.63;;;1.13;69.65
77120;BME280;66073;47.730;9.352;2023-03-01T09:33:39;96983.38;;;1.23;69.06
77120;BME280;66073;47.730;9.352;2023-03-01T09:36:11;96973.22;;;1.33;69.26
77120;BME280;66073;47.730;9.352;2023-03-01T09:38:36;96990.81;;;1.32;69.25
77120;BME280;66073;47.730;9.352;2023-03-01T09:41:08;96985.63;;;1.64;67.62
77120;BME280;66073;47.730;9.352;2023-03-01T09:43:45;96986.59;;;1.69;68.32
77120;BME280;66073;47.730;9.352;2023-03-01T09:46:14;96981.31;;;1.31;68.46
77120;BME280;66073;47.730;9.352;2023-03-01T09:49:02;96986.81;;;1.23;69.80
77120;BME280;66073;47.730;9.352;2023-03-01T09:53:55;96980.84;;;1.47;68.67
77120;BME280;66073;47.730;9.352;2023-03-01T10:05:53;96978.84;;;1.81;67.21
77120;BME280;66073;47.730;9.352;2023-03-01T10:10:52;96972.06;;;1.67;67.96
77120;BME280;66073;47.730;9.352;2023-03-01T10:13:29;96961.69;;;1.34;68.20
77120;BME280;66073;47.730;9.352;2023-03-01T10:19:11;96963.72;;;1.25;69.04
77120;BME280;66073;47.730;9.352;2023-03-01T10:21:44;96960.97;;;1.58;68.64
77120;BME280;66073;47.730;9.352;2023-03-01T10:24:14;96960.28;;;1.69;68.15
77120;BME280;66073;47.730;9.352;2023-03-01T10:29:24;96961.53;;;1.67;67.75
77120;BME280;66073;47.730;9.352;2023-03-01T10:31:53;96958.78;;;1.48;67.42
77120;BME280;66073;47.730;9.352;2023-03-01T10:34:25;96960.84;;;1.40;67.59
77120;BME280;66073;47.730;9.352;2023-03-01T10:36:56;96954.75;;;1.46;68.47
77120;BME280;66073;47.730;9.352;2023-03-01T10:39:25;96955.84;;;1.70;67.44
77120;BME280;66073;47.730;9.352;2023-03-01T10:42:03;96958.72;;;1.62;66.82
77120;BME280;66073;47.730;9.352;2023-03-01T10:44:47;96959.31;;;1.64;67.04
77120;BME280;66073;47.730;9.352;2023-03-01T10:47:35;96961.81;;;1.83;66.91
77120;BME280;66073;47.730;9.352;2023-03-01T10:50:03;96956.94;;;1.56;66.83
77120;BME280;66073;47.730;9.352;2023-03-01T10:55:02;96952.69;;;1.55;67.61
77120;BME280;66073;47.730;9.352;2023-03-01T10:57:36;96951.59;;;1.69;67.96
77120;BME280;66073;47.730;9.352;2023-03-01T11:00:23;96942.97;;;1.86;66.96
77120;BME280;66073;47.730;9.352;2023-03-01T11:03:09;96942.38;;;2.16;66.34
77120;BME280;66073;47.730;9.352;2023-03-01T11:05:35;96939.47;;;2.24;65.15
77120;BME280;66073;47.730;9.352;2023-03-01T11:08:02;96942.28;;;1.97;66.03
77120;BME280;66073;47.730;9.352;2023-03-01T11:10:35;96939.53;;;2.17;65.79
77120;BME280;66073;47.730;9.352;2023-03-01T11:13:13;96943.91;;;1.98;66.54
77120;BME280;66073;47.730;9.352;2023-03-01T11:15:41;96936.72;;;2.12;66.58
77120;BME280;66073;47.730;9.352;2023-03-01T11:18:20;96941.22;;;2.05;66.75
77120;BME280;66073;47.730;9.352;2023-03-01T11:20:46;96931.00;;;1.90;65.90
77120;BME280;66073;47.730;9.352;2023-03-01T11:23:15;96938.66;;;1.98;65.83
77120;BME280;66073;47.730;9.352;2023-03-01T11:25:59;96934.22;;;1.61;66.52
77120;BME280;66073;47.730;9.352;2023-03-01T11:28:27;96928.13;;;1.29;67.07
77120;BME280;66073;47.730;9.352;2023-03-01T11:31:06;96936.81;;;1.74;67.41
77120;BME280;66073;47.730;9.352;2023-03-01T11:33:38;96924.63;;;1.42;67.51
77120;BME280;66073;47.730;9.352;2023-03-01T11:38:41;96927.63;;;2.08;65.76
77120;BME280;66073;47.730;9.352;2023-03-01T11:41:15;96929.00;;;1.86;66.18
77120;BME280;66073;47.730;9.352;2023-03-01T11:43:55;96917.16;;;2.02;65.66
77120;BME280;66073;47.730;9.352;2023-03-01T11:52:02;96914.56;;;1.70;66.47
77120;BME280;66073;47.730;9.352;2023-03-01T12:08:07;96899.59;;;1.95;65.62
77120;BME280;66073;47.730;9.352;2023-03-01T12:11:04;96898.66;;;2.33;64.46
77120;BME280;66073;47.730;9.352;2023-03-01T12:23:30;96881.16;;;2.20;64.72
77120;BME280;66073;47.730;9.352;2023-03-01T12:36:31;96866.09;;;1.53;66.20
77120;BME280;66073;47.730;9.352;2023-03-01T12:39:22;96862.81;;;2.14;65.33
77120;BME280;66073;47.730;9.352;2023-03-01T12:44:57;96845.78;;;2.34;65.02
77120;BME280;66073;47.730;9.352;2023-03-01T12:50:37;96846.78;;;1.90;64.96
77120;BME280;66073;47.730;9.352;2023-03-01T12:53:05;96854.59;;;2.22;65.20
77120;BME280;66073;47.730;9.352;2023-03-01T12:55:39;96849.50;;;2.27;65.03
77120;BME280;66073;47.730;9.352;2023-03-01T12:58:28;96852.97;;;2.03;64.72
77120;BME280;66073;47.730;9.352;2023-03-01T13:04:14;96849.78;;;2.19;65.71
77120;BME280;66073;47.730;9.352;2023-03-01T13:06:53;96851.56;;;2.00;65.67
77120;BME280;66073;47.730;9.352;2023-03-01T13:09:40;96848.53;;;2.21;65.19
77120;BME280;66073;47.730;9.352;2023-03-01T13:17:48;96841.25;;;3.26;61.86
77120;BME280;66073;47.730;9.352;2023-03-01T13:20:20;96840.00;;;2.98;63.26
77120;BME280;66073;47.730;9.352;2023-03-01T13:22:48;96839.13;;;2.50;64.36
77120;BME280;66073;47.730;9.352;2023-03-01T13:25:26;96842.50;;;2.57;63.89
77120;BME280;66073;47.730;9.352;2023-03-01T13:28:37;96836.66;;;2.73;64.17
77120;BME280;66073;47.730;9.352;2023-03-01T13:30:58;96832.03;;;2.50;63.85
77120;BME280;66073;47.730;9.352;2023-03-01T13:35:56;96833.28;;;2.66;64.22
77120;BME280;66073;47.730;9.352;2023-03-01T13:46:57;96850.63;;;2.92;64.12
77120;BME280;66073;47.730;9.352;2023-03-01T13:49:34;96856.47;;;2.76;63.99
77120;BME280;66073;47.730;9.352;2023-03-01T13:52:02;96848.63;;;2.33;65.29
77120;BME280;66073;47.730;9.352;2023-03-01T13:54:31;96847.47;;;2.83;64.54
77120;BME280;66073;47.730;9.352;2023-03-01T13:57:00;96847.75;;;2.75;63.20
77120;BME280;66073;47.730;9.352;2023-03-01T13:59:26;96843.53;;;2.38;65.34
77120;BME280;66073;47.730;9.352;2023-03-01T14:01:54;96850.06;;;2.29;65.88
77120;BME280;66073;47.730;9.352;2023-03-01T14:04:26;96851.31;;;2.26;65.30
77120;BME280;66073;47.730;9.352;2023-03-01T14:07:18;96854.88;;;2.38;65.24
77120;BME280;66073;47.730;9.352;2023-03-01T14:09:47;96856.41;;;2.46;66.19
77120;BME280;66073;47.730;9.352;2023-03-01T14:15:29;96872.63;;;2.43;65.39
77120;BME280;66073;47.730;9.352;2023-03-01T14:18:05;96866.19;;;2.57;64.73
77120;BME280;66073;47.730;9.352;2023-03-01T14:20:39;96863.13;;;2.78;64.30
77120;BME280;66073;47.730;9.352;2023-03-01T14:23:16;96834.72;;;2.98;63.57
77120;BME280;66073;47.730;9.352;2023-03-01T14:25:51;96827.56;;;2.87;63.48
77120;BME280;66073;47.730;9.352;2023-03-01T14:30:50;96818.84;;;2.87;63.54
77120;BME280;66073;47.730;9.352;2023-03-01T14:33:26;96821.09;;;2.83;63.80
77120;BME280;66073;47.730;9.352;2023-03-01T14:35:55;96818.00;;;3.34;62.25
77120;BME280;66073;47.730;9.352;2023-03-01T14:38:22;96817.19;;;3.04;61.49
77120;BME280;66073;47.730;9.352;2023-03-01T14:40:53;96827.56;;;2.87;63.42
77120;BME280;66073;47.730;9.352;2023-03-01T14:43:22;96814.53;;;2.92;63.27
77120;BME280;66073;47.730;9.352;2023-03-01T14:45:50;96815.25;;;2.99;62.29
77120;BME280;66073;47.730;9.352;2023-03-01T14:48:16;96821.41;;;2.75;64.49
77120;BME280;66073;47.730;9.352;2023-03-01T14:50:44;96815.78;;;2.54;63.90
77120;BME280;66073;47.730;9.352;2023-03-01T14:53:25;96809.41;;;2.25;64.69
77120;BME280;66073;47.730;9.352;2023-03-01T14:55:54;96821.84;;;2.54;65.19
77120;BME280;66073;47.730;9.352;2023-03-01T14:58:23;96813.84;;;2.79;63.21
77120;BME280;66073;47.730;9.352;2023-03-01T15:00:56;96815.50;;;2.00;64.98
77120;BME280;66073;47.730;9.352;2023-03-01T15:03:35;96817.28;;;2.25;65.58
77120;BME280;66073;47.730;9.352;2023-03-01T15:06:05;96809.50;;;2.36;65.25
77120;BME280;66073;47.730;9.352;2023-03-01T15:08:33;96816.25;;;2.08;65.76